sensor_id;sensor_type;location;lat;lon;timestamp;pressure;altitude;pressure_sealevel;temperature
71807;BMP280;59655;42.590;23.364;2023-06-26T00:01:17;91383.28;;;19.55
71807;BMP280;59655;42.590;23.364;2023-06-26T00:03:46;91386.16;;;19.45
71807;BMP280;59655;42.590;23.364;2023-06-26T00:06:12;91371.00;;;19.24
71807;BMP280;59655;42.590;23.364;2023-06-26T00:08:37;91376.25;;;19.08
71807;BMP280;59655;42.590;23.364;2023-06-26T00:11:03;91384.66;;;19.28
71807;BMP280;59655;42.590;23.364;2023-06-26T00:13:28;91385.69;;;19.35
71807;BMP280;59655;42.590;23.364;2023-06-26T00:15:53;91383.88;;;19.40
71807;BMP280;59655;42.590;23.364;2023-06-26T00:18:19;91384.84;;;19.32
71807;BMP280;59655;42.590;23.364;2023-06-26T00:20:44;91381.44;;;19.04
71807;BMP280;59655;42.590;23.364;2023-06-26T00:23:11;91379.34;;;19.03
71807;BMP280;59655;42.590;23.364;2023-06-26T00:25:36;91376.00;;;18.91
71807;BMP280;59655;42.590;23.364;2023-06-26T00:28:02;91371.88;;;19.01
71807;BMP280;59655;42.590;23.364;2023-06-26T00:30:27;91373.25;;;18.88
71807;BMP280;59655;42.590;23.364;2023-06-26T00:32:53;91369.69;;;18.98
71807;BMP280;59655;42.590;23.364;2023-06-26T00:35:18;91375.25;;;19.02
71807;BMP280;59655;42.590;23.364;2023-06-26T00:37:44;91369.47;;;18.94
71807;BMP280;59655;42.590;23.364;2023-06-26T00:40:09;91368.09;;;18.93
71807;BMP280;59655;42.590;23.364;2023-06-26T00:42:35;91369.66;;;18.84
71807;BMP280;59655;42.590;23.364;2023-06-26T00:45:00;91364.84;;;18.82
71807;BMP280;59655;42.590;23.364;2023-06-26T00:47:26;91363.97;;;18.78
71807;BMP280;59655;42.590;23.364;2023-06-26T00:49:52;91364.38;;;18.86
71807;BMP280;59655;42.590;23.364;2023-06-26T00:52:19;91363.50;;;18.95
71807;BMP280;59655;42.590;23.364;2023-06-26T00:54:44;91359.59;;;18.84
71807;BMP280;59655;42.590;23.364;2023-06-26T00:57:10;91361.19;;;18.89
71807;BMP280;59655;42.590;23.364;2023-06-26T00:59:35;91363.09;;;18.87
71807;BMP280;59655;42.590;23.364;2023-06-26T01:02:01;91358.97;;;18.72
71807;BMP280;59655;42.590;23.364;2023-06-26T01:04:26;91351.31;;;18.80
71807;BMP280;59655;42.590;23.364;2023-06-26T01:06:52;91350.50;;;18.78
71807;BMP280;59655;42.590;23.364;2023-06-26T01:09:19;91357.38;;;18.81
71807;BMP280;59655;42.590;23.364;2023-06-26T01:11:45;91355.41;;;18.81
71807;BMP280;59655;42.590;23.364;2023-06-26T01:14:11;91344.38;;;18.89
71807;BMP280;59655;42.590;23.364;2023-06-26T01:16:38;91345.06;;;18.89
71807;BMP280;59655;42.590;23.364;2023-06-26T01:19:10;91343.38;;;18.96
71807;BMP280;59655;42.590;23.364;2023-06-26T01:21:41;91337.69;;;19.04
71807;BMP280;59655;42.590;23.364;2023-06-26T01:24:17;91337.59;;;19.02
71807;BMP280;59655;42.590;23.364;2023-06-26T01:26:48;91342.84;;;18.86
71807;BMP280;59655;42.590;23.364;2023-06-26T01:29:16;91330.75;;;18.85
71807;BMP280;59655;42.590;23.364;2023-06-26T01:31:43;91330.81;;;18.87
71807;BMP280;59655;42.590;23.364;2023-06-26T01:34:12;91330.53;;;18.95
71807;BMP280;59655;42.590;23.364;2023-06-26T01:36:38;91326.53;;;18.96
71807;BMP280;59655;42.590;23.364;2023-06-26T01:39:03;91335.28;;;18.96
71807;BMP280;59655;42.590;23.364;2023-06-26T01:41:28;91332.84;;;19.00
71807;BMP280;59655;42.590;23.364;2023-06-26T01:46:30;91326.44;;;18.94
71807;BMP280;59655;42.590;23.364;2023-06-26T01:51:38;91335.38;;;18.71
71807;BMP280;59655;42.590;23.364;2023-06-26T01:54:10;91325.91;;;18.70
71807;BMP280;59655;42.590;23.364;2023-06-26T01:56:38;91323.22;;;18.70
71807;BMP280;59655;42.590;23.364;2023-06-26T01:59:05;91326.28;;;18.64
71807;BMP280;59655;42.590;23.364;2023-06-26T02:01:32;91325.25;;;18.57
71807;BMP280;59655;42.590;23.364;2023-06-26T02:03:59;91323.25;;;18.58
71807;BMP280;59655;42.590;23.364;2023-06-26T02:06:24;91314.91;;;18.52
71807;BMP280;59655;42.590;23.364;2023-06-26T02:08:50;91323.91;;;18.56
71807;BMP280;59655;42.590;23.364;2023-06-26T02:11:15;91321.50;;;18.62
71807;BMP280;59655;42.590;23.364;2023-06-26T02:13:40;91320.50;;;18.56
71807;BMP280;59655;42.590;23.364;2023-06-26T02:16:06;91312.09;;;18.50
71807;BMP280;59655;42.590;23.364;2023-06-26T02:18:31;91318.94;;;18.39
71807;BMP280;59655;42.590;23.364;2023-06-26T02:20:56;91317.84;;;18.44
71807;BMP280;59655;42.590;23.364;2023-06-26T02:23:22;91319.00;;;18.53
71807;BMP280;59655;42.590;23.364;2023-06-26T02:25:47;91318.19;;;18.50
71807;BMP280;59655;42.590;23.364;2023-06-26T02:28:13;91304.63;;;18.48
71807;BMP280;59655;42.590;23.364;2023-06-26T02:30:38;91310.28;;;18.40
71807;BMP280;59655;42.590;23.364;2023-06-26T02:33:04;91308.34;;;18.55
71807;BMP280;59655;42.590;23.364;2023-06-26T02:35:29;91317.31;;;18.59
71807;BMP280;59655;42.590;23.364;2023-06-26T02:37:54;91318.19;;;18.50
71807;BMP280;59655;42.590;23.364;2023-06-26T02:40:20;91324.47;;;18.55
71807;BMP280;59655;42.590;23.364;2023-06-26T02:42:45;91318.69;;;18.47
71807;BMP280;59655;42.590;23.364;2023-06-26T02:45:10;91324.78;;;18.61
71807;BMP280;59655;42.590;23.364;2023-06-26T02:47:36;91328.94;;;18.50
71807;BMP280;59655;42.590;23.364;2023-06-26T02:50:06;91325.53;;;18.50
71807;BMP280;59655;42.590;23.364;2023-06-26T02:52:31;91327.94;;;18.57
71807;BMP280;59655;42.590;23.364;2023-06-26T02:54:56;91327.00;;;18.64
71807;BMP280;59655;42.590;23.364;2023-06-26T02:57:22;91326.09;;;18.60
71807;BMP280;59655;42.590;23.364;2023-06-26T02:59:47;91326.19;;;18.62
71807;BMP280;59655;42.590;23.364;2023-06-26T03:02:12;91325.16;;;18.55
71807;BMP280;59655;42.590;23.364;2023-06-26T03:04:38;91330.88;;;18.61
71807;BMP280;59655;42.590;23.364;2023-06-26T03:07:04;91339.00;;;18.63
71807;BMP280;59655;42.590;23.364;2023-06-26T03:09:29;91344.81;;;18.72
71807;BMP280;59655;42.590;23.364;2023-06-26T03:11:54;91344.38;;;18.63
71807;BMP280;59655;42.590;23.364;2023-06-26T03:14:21;91340.22;;;18.60
71807;BMP280;59655;42.590;23.364;2023-06-26T03:16:46;91343.97;;;18.55
71807;BMP280;59655;42.590;23.364;2023-06-26T03:19:11;91346.66;;;18.55
71807;BMP280;59655;42.590;23.364;2023-06-26T03:21:37;91342.03;;;18.44
71807;BMP280;59655;42.590;23.364;2023-06-26T03:24:02;91340.59;;;18.55
71807;BMP280;59655;42.590;23.364;2023-06-26T03:26:28;91344.34;;;18.50
71807;BMP280;59655;42.590;23.364;2023-06-26T03:28:54;91342.00;;;18.56
71807;BMP280;59655;42.590;23.364;2023-06-26T03:31:20;91340.44;;;18.39
71807;BMP280;59655;42.590;23.364;2023-06-26T03:33:46;91335.91;;;18.55
71807;BMP280;59655;42.590;23.364;2023-06-26T03:36:11;91341.63;;;18.61
71807;BMP280;59655;42.590;23.364;2023-06-26T03:38:37;91346.28;;;18.61
71807;BMP280;59655;42.590;23.364;2023-06-26T03:41:02;91346.50;;;18.65
71807;BMP280;59655;42.590;23.364;2023-06-26T03:43:28;91339.72;;;18.64
71807;BMP280;59655;42.590;23.364;2023-06-26T03:45:53;91337.75;;;18.64
71807;BMP280;59655;42.590;23.364;2023-06-26T03:48:19;91343.31;;;18.69
71807;BMP280;59655;42.590;23.364;2023-06-26T03:50:44;91340.09;;;18.58
71807;BMP280;59655;42.590;23.364;2023-06-26T03:53:10;91338.03;;;18.57
71807;BMP280;59655;42.590;23.364;2023-06-26T03:55:35;91340.81;;;18.59
71807;BMP280;59655;42.590;23.364;2023-06-26T03:58:01;91347.75;;;18.50
71807;BMP280;59655;42.590;23.364;2023-06-26T04:00:26;91339.25;;;18.42
71807;BMP280;59655;42.590;23.364;2023-06-26T04:02:52;91335.81;;;18.53
71807;BMP280;59655;42.590;23.364;2023-06-26T04:05:17;91329.47;;;18.60
71807;BMP280;59655;42.590;23.364;2023-06-26T04:07:42;91336.56;;;18.68
71807;BMP280;59655;42.590;23.364;2023-06-26T04:10:08;91339.66;;;18.76
71807;BMP280;59655;42.590;23.364;2023-06-26T04:12:34;91336.88;;;18.74
71807;BMP280;59655;42.590;23.364;2023-06-26T04:14:59;91335.06;;;18.64
71807;BMP280;59655;42.590;23.364;2023-06-26T04:17:25;91330.47;;;18.67
71807;BMP280;59655;42.590;23.364;2023-06-26T04:19:50;91321.69;;;18.67
71807;BMP280;59655;42.590;23.364;2023-06-26T04:22:15;91326.13;;;18.48
71807;BMP280;59655;42.590;23.364;2023-06-26T04:24:41;91326.03;;;18.46
71807;BMP280;59655;42.590;23.364;2023-06-26T04:27:06;91329.66;;;18.51
71807;BMP280;59655;42.590;23.364;2023-06-26T04:29:32;91330.88;;;18.36
71807;BMP280;59655;42.590;23.364;2023-06-26T04:31:57;91336.94;;;18.36
71807;BMP280;59655;42.590;23.364;2023-06-26T04:34:27;91337.97;;;18.43
71807;BMP280;59655;42.590;23.364;2023-06-26T04:36:52;91340.19;;;18.47
71807;BMP280;59655;42.590;23.364;2023-06-26T04:39:18;91337.97;;;18.43
71807;BMP280;59655;42.590;23.364;2023-06-26T04:41:44;91336.69;;;18.58
71807;BMP280;59655;42.590;23.364;2023-06-26T04:44:09;91338.81;;;18.59
71807;BMP280;59655;42.590;23.364;2023-06-26T04:46:36;91345.22;;;18.66
71807;BMP280;59655;42.590;23.364;2023-06-26T04:49:01;91344.72;;;18.70
71807;BMP280;59655;42.590;23.364;2023-06-26T04:51:28;91342.84;;;18.72
71807;BMP280;59655;42.590;23.364;2023-06-26T04:53:54;91336.31;;;18.63
71807;BMP280;59655;42.590;23.364;2023-06-26T04:56:19;91329.13;;;18.80
71807;BMP280;59655;42.590;23.364;2023-06-26T04:58:44;91334.19;;;18.74
71807;BMP280;59655;42.590;23.364;2023-06-26T05:01:10;91343.81;;;18.65
71807;BMP280;59655;42.590;23.364;2023-06-26T05:03:37;91342.06;;;18.58
71807;BMP280;59655;42.590;23.364;2023-06-26T05:06:02;91340.47;;;18.53
71807;BMP280;59655;42.590;23.364;2023-06-26T05:08:27;91345.50;;;18.72
71807;BMP280;59655;42.590;23.364;2023-06-26T05:10:53;91346.75;;;18.57
71807;BMP280;59655;42.590;23.364;2023-06-26T05:13:23;91342.84;;;18.72
71807;BMP280;59655;42.590;23.364;2023-06-26T05:15:48;91344.44;;;18.77
71807;BMP280;59655;42.590;23.364;2023-06-26T05:18:14;91361.97;;;18.78
71807;BMP280;59655;42.590;23.364;2023-06-26T05:20:40;91364.28;;;18.84
71807;BMP280;59655;42.590;23.364;2023-06-26T05:23:05;91352.91;;;18.85
71807;BMP280;59655;42.590;23.364;2023-06-26T05:25:31;91355.03;;;18.87
71807;BMP280;59655;42.590;23.364;2023-06-26T05:27:58;91363.50;;;18.95
71807;BMP280;59655;42.590;23.364;2023-06-26T05:30:24;91366.69;;;18.92
71807;BMP280;59655;42.590;23.364;2023-06-26T05:32:51;91361.19;;;18.89
71807;BMP280;59655;42.590;23.364;2023-06-26T05:35:18;91360.16;;;18.83
71807;BMP280;59655;42.590;23.364;2023-06-26T05:37:43;91362.66;;;18.79
71807;BMP280;59655;42.590;23.364;2023-06-26T05:40:09;91353.59;;;18.86
71807;BMP280;59655;42.590;23.364;2023-06-26T05:42:35;91366.56;;;18.89
71807;BMP280;59655;42.590;23.364;2023-06-26T05:45:00;91373.84;;;18.87
71807;BMP280;59655;42.590;23.364;2023-06-26T05:47:25;91365.34;;;18.79
71807;BMP280;59655;42.590;23.364;2023-06-26T05:49:51;91370.34;;;18.84
71807;BMP280;59655;42.590;23.364;2023-06-26T05:52:16;91370.56;;;18.88
71807;BMP280;59655;42.590;23.364;2023-06-26T05:54:42;91365.91;;;18.89
71807;BMP280;59655;42.590;23.364;2023-06-26T05:57:08;91366.28;;;18.97
71807;BMP280;59655;42.590;23.364;2023-06-26T05:59:36;91372.25;;;18.96
71807;BMP280;59655;42.590;23.364;2023-06-26T06:02:01;91379.72;;;18.83
71807;BMP280;59655;42.590;23.364;2023-06-26T06:04:27;91375.44;;;18.92
71807;BMP280;59655;42.590;23.364;2023-06-26T06:06:52;91371.19;;;19.01
71807;BMP280;59655;42.590;23.364;2023-06-26T06:09:18;91379.63;;;18.95
71807;BMP280;59655;42.590;23.364;2023-06-26T06:11:43;91361.69;;;19.00
71807;BMP280;59655;42.590;23.364;2023-06-26T06:14:08;91370.06;;;19.06
71807;BMP280;59655;42.590;23.364;2023-06-26T06:16:34;91367.00;;;19.11
71807;BMP280;59655;42.590;23.364;2023-06-26T06:18:59;91366.09;;;19.07
71807;BMP280;59655;42.590;23.364;2023-06-26T06:21:25;91367.81;;;19.14
71807;BMP280;59655;42.590;23.364;2023-06-26T06:23:50;91371.38;;;19.19
71807;BMP280;59655;42.590;23.364;2023-06-26T06:26:15;91372.19;;;19.21
71807;BMP280;59655;42.590;23.364;2023-06-26T06:28:41;91360.63;;;19.19
71807;BMP280;59655;42.590;23.364;2023-06-26T06:31:06;91366.69;;;19.19
71807;BMP280;59655;42.590;23.364;2023-06-26T06:33:32;91357.16;;;19.30
71807;BMP280;59655;42.590;23.364;2023-06-26T06:35:57;91363.25;;;19.30
71807;BMP280;59655;42.590;23.364;2023-06-26T06:38:22;91363.44;;;19.21
71807;BMP280;59655;42.590;23.364;2023-06-26T06:40:48;91359.66;;;19.26
71807;BMP280;59655;42.590;23.364;2023-06-26T06:43:14;91360.03;;;19.20
71807;BMP280;59655;42.590;23.364;2023-06-26T06:45:39;91362.75;;;19.34
71807;BMP280;59655;42.590;23.364;2023-06-26T06:48:05;91363.94;;;19.31
71807;BMP280;59655;42.590;23.364;2023-06-26T06:50:30;91364.81;;;19.35
71807;BMP280;59655;42.590;23.364;2023-06-26T06:52:56;91369.09;;;19.27
71807;BMP280;59655;42.590;23.364;2023-06-26T06:55:22;91369.72;;;19.25
71807;BMP280;59655;42.590;23.364;2023-06-26T06:57:47;91373.69;;;19.10
71807;BMP280;59655;42.590;23.364;2023-06-26T07:00:13;91369.59;;;19.23
71807;BMP280;59655;42.590;23.364;2023-06-26T07:02:42;91371.78;;;19.13
71807;BMP280;59655;42.590;23.364;2023-06-26T07:05:09;91360.44;;;19.28
71807;BMP280;59655;42.590;23.364;2023-06-26T07:07:35;91361.75;;;19.27
71807;BMP280;59655;42.590;23.364;2023-06-26T07:10:03;91364.03;;;19.33
71807;BMP280;59655;42.590;23.364;2023-06-26T07:12:29;91366.00;;;19.32
71807;BMP280;59655;42.590;23.364;2023-06-26T07:14:55;91356.75;;;19.35
71807;BMP280;59655;42.590;23.364;2023-06-26T07:17:21;91365.81;;;19.42
71807;BMP280;59655;42.590;23.364;2023-06-26T07:19:47;91366.94;;;19.51
71807;BMP280;59655;42.590;23.364;2023-06-26T07:22:12;91362.13;;;19.49
71807;BMP280;59655;42.590;23.364;2023-06-26T07:24:38;91360.75;;;19.48
71807;BMP280;59655;42.590;23.364;2023-06-26T07:27:03;91351.56;;;19.53
71807;BMP280;59655;42.590;23.364;2023-06-26T07:29:29;91363.13;;;19.56
71807;BMP280;59655;42.590;23.364;2023-06-26T07:31:54;91359.66;;;19.53
71807;BMP280;59655;42.590;23.364;2023-06-26T07:34:19;91358.75;;;19.63
71807;BMP280;59655;42.590;23.364;2023-06-26T07:36:45;91370.09;;;19.61
71807;BMP280;59655;42.590;23.364;2023-06-26T07:39:10;91368.84;;;19.62
71807;BMP280;59655;42.590;23.364;2023-06-26T07:41:36;91359.72;;;19.69
71807;BMP280;59655;42.590;23.364;2023-06-26T07:44:02;91365.00;;;19.67
71807;BMP280;59655;42.590;23.364;2023-06-26T07:46:27;91374.41;;;19.66
71807;BMP280;59655;42.590;23.364;2023-06-26T07:48:53;91365.09;;;19.69
71807;BMP280;59655;42.590;23.364;2023-06-26T07:51:18;91371.78;;;19.68
71807;BMP280;59655;42.590;23.364;2023-06-26T07:53:44;91366.41;;;19.68
71807;BMP280;59655;42.590;23.364;2023-06-26T07:56:09;91370.19;;;19.63
71807;BMP280;59655;42.590;23.364;2023-06-26T07:58:35;91370.59;;;19.71
71807;BMP280;59655;42.590;23.364;2023-06-26T08:01:00;91373.06;;;19.81
71807;BMP280;59655;42.590;23.364;2023-06-26T08:03:26;91377.63;;;19.92
71807;BMP280;59655;42.590;23.364;2023-06-26T08:05:51;91371.28;;;19.86
71807;BMP280;59655;42.590;23.364;2023-06-26T08:08:17;91369.56;;;19.92
71807;BMP280;59655;42.590;23.364;2023-06-26T08:10:42;91374.44;;;19.96
71807;BMP280;59655;42.590;23.364;2023-06-26T08:13:07;91362.97;;;19.95
71807;BMP280;59655;42.590;23.364;2023-06-26T08:15:34;91367.97;;;20.01
71807;BMP280;59655;42.590;23.364;2023-06-26T08:18:00;91364.03;;;20.04
71807;BMP280;59655;42.590;23.364;2023-06-26T08:20:26;91370.66;;;20.01
71807;BMP280;59655;42.590;23.364;2023-06-26T08:22:51;91365.84;;;19.99
71807;BMP280;59655;42.590;23.364;2023-06-26T08:25:18;91370.72;;;20.03
71807;BMP280;59655;42.590;23.364;2023-06-26T08:27:43;91370.25;;;20.06
71807;BMP280;59655;42.590;23.364;2023-06-26T08:30:09;91367.44;;;20.04
71807;BMP280;59655;42.590;23.364;2023-06-26T08:32:35;91366.94;;;20.08
71807;BMP280;59655;42.590;23.364;2023-06-26T08:35:01;91365.91;;;20.15
71807;BMP280;59655;42.590;23.364;2023-06-26T08:37:26;91367.50;;;20.20
71807;BMP280;59655;42.590;23.364;2023-06-26T08:39:51;91371.78;;;20.25
71807;BMP280;59655;42.590;23.364;2023-06-26T08:42:17;91368.53;;;20.29
71807;BMP280;59655;42.590;23.364;2023-06-26T08:44:42;91369.44;;;20.34
71807;BMP280;59655;42.590;23.364;2023-06-26T08:47:11;91382.69;;;20.43
71807;BMP280;59655;42.590;23.364;2023-06-26T08:49:51;91367.38;;;20.48
71807;BMP280;59655;42.590;23.364;2023-06-26T08:52:36;91369.81;;;20.42
71807;BMP280;59655;42.590;23.364;2023-06-26T08:55:03;91370.59;;;20.44
71807;BMP280;59655;42.590;23.364;2023-06-26T08:57:32;91370.59;;;20.44
71807;BMP280;59655;42.590;23.364;2023-06-26T08:59:57;91373.69;;;20.52
71807;BMP280;59655;42.590;23.364;2023-06-26T09:02:23;91373.69;;;20.52
71807;BMP280;59655;42.590;23.364;2023-06-26T09:04:49;91366.53;;;20.59
71807;BMP280;59655;42.590;23.364;2023-06-26T09:07:16;91363.47;;;20.51
71807;BMP280;59655;42.590;23.364;2023-06-26T09:09:41;91365.75;;;20.57
71807;BMP280;59655;42.590;23.364;2023-06-26T09:12:08;91372.81;;;20.64
71807;BMP280;59655;42.590;23.364;2023-06-26T09:14:34;91359.63;;;20.70
71807;BMP280;59655;42.590;23.364;2023-06-26T09:16:59;91363.59;;;20.69
71807;BMP280;59655;42.590;23.364;2023-06-26T09:19:24;91363.53;;;20.67
71807;BMP280;59655;42.590;23.364;2023-06-26T09:21:50;91377.31;;;20.59
71807;BMP280;59655;42.590;23.364;2023-06-26T09:24:17;91377.84;;;20.71
71807;BMP280;59655;42.590;23.364;2023-06-26T09:26:42;91362.06;;;20.80
71807;BMP280;59655;42.590;23.364;2023-06-26T09:29:09;91375.44;;;20.77
71807;BMP280;59655;42.590;23.364;2023-06-26T09:31:38;91358.53;;;20.77
71807;BMP280;59655;42.590;23.364;2023-06-26T09:34:04;91360.81;;;20.83
71807;BMP280;59655;42.590;23.364;2023-06-26T09:36:31;91364.47;;;20.89
71807;BMP280;59655;42.590;23.364;2023-06-26T09:39:05;91357.69;;;20.88
71807;BMP280;59655;42.590;23.364;2023-06-26T09:41:36;91355.97;;;20.95
71807;BMP280;59655;42.590;23.364;2023-06-26T09:44:05;91357.25;;;20.94
71807;BMP280;59655;42.590;23.364;2023-06-26T09:46:31;91361.19;;;21.07
71807;BMP280;59655;42.590;23.364;2023-06-26T09:49:06;91371.81;;;21.02
71807;BMP280;59655;42.590;23.364;2023-06-26T09:51:33;91374.50;;;21.02
71807;BMP280;59655;42.590;23.364;2023-06-26T09:54:00;91363.19;;;21.06
71807;BMP280;59655;42.590;23.364;2023-06-26T09:56:27;91369.44;;;21.11
71807;BMP280;59655;42.590;23.364;2023-06-26T09:58:55;91368.22;;;21.14
71807;BMP280;59655;42.590;23.364;2023-06-26T10:01:21;91366.22;;;21.14
71807;BMP280;59655;42.590;23.364;2023-06-26T10:03:46;91354.91;;;21.18
71807;BMP280;59655;42.590;23.364;2023-06-26T10:06:12;91358.72;;;21.29
71807;BMP280;59655;42.590;23.364;2023-06-26T10:08:39;91361.41;;;21.29
71807;BMP280;59655;42.590;23.364;2023-06-26T10:11:05;91379.25;;;21.36
71807;BMP280;59655;42.590;23.364;2023-06-26T10:13:35;91358.06;;;21.12
71807;BMP280;59655;42.590;23.364;2023-06-26T10:16:02;91371.53;;;21.12
71807;BMP280;59655;42.590;23.364;2023-06-26T10:18:31;91357.69;;;21.04
71807;BMP280;59655;42.590;23.364;2023-06-26T10:20:59;91361.00;;;21.02
71807;BMP280;59655;42.590;23.364;2023-06-26T10:23:26;91355.63;;;21.02
71807;BMP280;59655;42.590;23.364;2023-06-26T10:25:54;91358.91;;;21.01
71807;BMP280;59655;42.590;23.364;2023-06-26T10:28:20;91359.00;;;21.03
71807;BMP280;59655;42.590;23.364;2023-06-26T10:30:51;91363.44;;;21.12
71807;BMP280;59655;42.590;23.364;2023-06-26T10:33:17;91353.50;;;21.17
71807;BMP280;59655;42.590;23.364;2023-06-26T10:35:44;91362.13;;;21.29
71807;BMP280;59655;42.590;23.364;2023-06-26T10:38:12;91355.88;;;21.42
71807;BMP280;59655;42.590;23.364;2023-06-26T10:40:46;91352.34;;;21.38
71807;BMP280;59655;42.590;23.364;2023-06-26T10:43:12;91349.56;;;21.36
71807;BMP280;59655;42.590;23.364;2023-06-26T10:45:45;91348.34;;;21.39
71807;BMP280;59655;42.590;23.364;2023-06-26T10:48:14;91351.09;;;21.57
71807;BMP280;59655;42.590;23.364;2023-06-26T10:50:40;91350.50;;;21.58
71807;BMP280;59655;42.590;23.364;2023-06-26T10:55:54;91364.16;;;21.62
71807;BMP280;59655;42.590;23.364;2023-06-26T10:58:42;91353.41;;;21.64
71807;BMP280;59655;42.590;23.364;2023-06-26T11:01:20;91350.13;;;21.66
71807;BMP280;59655;42.590;23.364;2023-06-26T11:06:22;91350.50;;;21.58
71807;BMP280;59655;42.590;23.364;2023-06-26T11:08:49;91349.09;;;21.57
71807;BMP280;59655;42.590;23.364;2023-06-26T11:11:15;91344.63;;;21.64
71807;BMP280;59655;42.590;23.364;2023-06-26T11:13:41;91336.66;;;21.50
71807;BMP280;59655;42.590;23.364;2023-06-26T11:16:07;91345.38;;;21.48
71807;BMP280;59655;42.590;23.364;2023-06-26T11:18:33;91351.47;;;21.49
71807;BMP280;59655;42.590;23.364;2023-06-26T11:23:32;91338.28;;;21.57
71807;BMP280;59655;42.590;23.364;2023-06-26T11:26:21;91343.38;;;21.67
71807;BMP280;59655;42.590;23.364;2023-06-26T11:28:55;91335.34;;;21.69
71807;BMP280;59655;42.590;23.364;2023-06-26T11:31:32;91342.94;;;21.72
71807;BMP280;59655;42.590;23.364;2023-06-26T11:34:06;91336.22;;;21.73
71807;BMP280;59655;42.590;23.364;2023-06-26T11:36:33;91343.16;;;21.79
71807;BMP280;59655;42.590;23.364;2023-06-26T11:39:03;91334.16;;;21.90
71807;BMP280;59655;42.590;23.364;2023-06-26T11:41:32;91330.38;;;21.97
71807;BMP280;59655;42.590;23.364;2023-06-26T11:44:09;91345.66;;;22.08
71807;BMP280;59655;42.590;23.364;2023-06-26T11:46:39;91340.19;;;22.06
71807;BMP280;59655;42.590;23.364;2023-06-26T11:49:07;91336.16;;;22.07
71807;BMP280;59655;42.590;23.364;2023-06-26T11:51:33;91345.22;;;22.14
71807;BMP280;59655;42.590;23.364;2023-06-26T11:54:01;91337.63;;;21.92
71807;BMP280;59655;42.590;23.364;2023-06-26T11:56:30;91333.84;;;21.99
71807;BMP280;59655;42.590;23.364;2023-06-26T11:59:05;91332.16;;;22.08
71807;BMP280;59655;42.590;23.364;2023-06-26T12:04:01;91332.53;;;22.01
71807;BMP280;59655;42.590;23.364;2023-06-26T12:06:29;91331.53;;;22.10
71807;BMP280;59655;42.590;23.364;2023-06-26T12:08:56;91335.59;;;22.29
71807;BMP280;59655;42.590;23.364;2023-06-26T12:11:23;91357.69;;;22.23
71807;BMP280;59655;42.590;23.364;2023-06-26T12:13:49;91335.25;;;22.18
71807;BMP280;59655;42.590;23.364;2023-06-26T12:16:15;91335.91;;;22.19
71807;BMP280;59655;42.590;23.364;2023-06-26T12:18:40;91337.41;;;22.04
71807;BMP280;59655;42.590;23.364;2023-06-26T12:21:06;91329.44;;;22.26
71807;BMP280;59655;42.590;23.364;2023-06-26T12:23:39;91333.13;;;22.35
71807;BMP280;59655;42.590;23.364;2023-06-26T12:26:21;91342.25;;;22.43
71807;BMP280;59655;42.590;23.364;2023-06-26T12:28:46;91324.50;;;22.58
71807;BMP280;59655;42.590;23.364;2023-06-26T12:31:15;91330.69;;;22.61
71807;BMP280;59655;42.590;23.364;2023-06-26T12:33:44;91330.03;;;22.80
71807;BMP280;59655;42.590;23.364;2023-06-26T12:36:13;91324.47;;;22.96
71807;BMP280;59655;42.590;23.364;2023-06-26T12:38:41;91323.56;;;23.29
71807;BMP280;59655;42.590;23.364;2023-06-26T12:41:13;91328.88;;;23.47
71807;BMP280;59655;42.590;23.364;2023-06-26T12:43:42;91342.94;;;23.21
71807;BMP280;59655;42.590;23.364;2023-06-26T12:46:08;91345.59;;;23.41
71807;BMP280;59655;42.590;23.364;2023-06-26T12:48:41;91333.72;;;23.51
71807;BMP280;59655;42.590;23.364;2023-06-26T12:51:18;91320.75;;;24.37
71807;BMP280;59655;42.590;23.364;2023-06-26T12:53:43;91332.63;;;24.74
71807;BMP280;59655;42.590;23.364;2023-06-26T12:56:09;91333.41;;;25.30
71807;BMP280;59655;42.590;23.364;2023-06-26T12:58:36;91334.00;;;25.55
71807;BMP280;59655;42.590;23.364;2023-06-26T13:01:06;91328.25;;;26.01
71807;BMP280;59655;42.590;23.364;2023-06-26T13:03:42;91327.28;;;26.18
71807;BMP280;59655;42.590;23.364;2023-06-26T13:06:07;91323.91;;;26.52
71807;BMP280;59655;42.590;23.364;2023-06-26T13:08:33;91321.03;;;26.80
71807;BMP280;59655;42.590;23.364;2023-06-26T13:10:59;91328.16;;;26.97
71807;BMP280;59655;42.590;23.364;2023-06-26T13:13:25;91336.78;;;27.23
71807;BMP280;59655;42.590;23.364;2023-06-26T13:15:51;91337.34;;;27.56
71807;BMP280;59655;42.590;23.364;2023-06-26T13:18:16;91337.34;;;27.56
71807;BMP280;59655;42.590;23.364;2023-06-26T13:20:42;91338.97;;;27.73
71807;BMP280;59655;42.590;23.364;2023-06-26T13:23:07;91342.75;;;26.76
71807;BMP280;59655;42.590;23.364;2023-06-26T13:25:33;91336.78;;;26.49
71807;BMP280;59655;42.590;23.364;2023-06-26T13:27:58;91344.41;;;26.25
71807;BMP280;59655;42.590;23.364;2023-06-26T13:30:23;91343.09;;;25.95
71807;BMP280;59655;42.590;23.364;2023-06-26T13:32:49;91348.22;;;25.53
71807;BMP280;59655;42.590;23.364;2023-06-26T13:35:15;91344.25;;;25.28
71807;BMP280;59655;42.590;23.364;2023-06-26T13:37:41;91346.75;;;25.20
71807;BMP280;59655;42.590;23.364;2023-06-26T13:40:08;91351.41;;;24.91
71807;BMP280;59655;42.590;23.364;2023-06-26T13:42:34;91355.28;;;24.84
71807;BMP280;59655;42.590;23.364;2023-06-26T13:45:01;91353.25;;;24.59
71807;BMP280;59655;42.590;23.364;2023-06-26T13:47:28;91355.28;;;24.58
71807;BMP280;59655;42.590;23.364;2023-06-26T13:49:53;91355.78;;;24.53
71807;BMP280;59655;42.590;23.364;2023-06-26T13:52:19;91345.66;;;24.55
71807;BMP280;59655;42.590;23.364;2023-06-26T13:54:44;91346.31;;;24.78
71807;BMP280;59655;42.590;23.364;2023-06-26T13:57:09;91350.25;;;24.49
71807;BMP280;59655;42.590;23.364;2023-06-26T13:59:37;91344.53;;;24.62
71807;BMP280;59655;42.590;23.364;2023-06-26T14:02:04;91346.53;;;24.38
71807;BMP280;59655;42.590;23.364;2023-06-26T14:04:30;91341.53;;;24.52
71807;BMP280;59655;42.590;23.364;2023-06-26T14:06:56;91343.22;;;24.39
71807;BMP280;59655;42.590;23.364;2023-06-26T14:09:21;91342.41;;;24.35